Time;durP1;ratioP1;P1;durP2;ratioP2;P2;SDS_P1;SDS_P2;PMS_P1;PMS_P2;Temp;Humidity;BMP_temperature;BMP_pressure;BME280_temperature;BME280_humidity;BME280_pressure;Samples;Min_cycle;Max_cycle;Signal;HPM_P1;HPM_P2
2023/08/25 00:02:20;;;;;;;3.30;2.10;;;20.50;99.90;;;;;;5040637;28;20444;-80
2023/08/25 00:04:48;;;;;;;3.07;2.40;;;20.40;99.90;;;;;;5039860;28;20473;-82
2023/08/25 00:07:14;;;;;;;6.13;3.20;;;20.40;99.90;;;;;;5039196;28;20967;-81
2023/08/25 00:09:45;;;;;;;3.27;2.13;;;20.40;99.90;;;;;;5040080;28;20453;-82
2023/08/25 00:12:12;;;;;;;3.53;2.43;;;20.40;99.90;;;;;;5041678;28;20492;-81
2023/08/25 00:14:39;;;;;;;7.40;3.07;;;20.30;99.90;;;;;;5040740;28;21039;-82
2023/08/25 00:17:05;;;;;;;3.57;2.50;;;20.30;99.90;;;;;;5042428;28;20516;-83
2023/08/25 00:19:34;;;;;;;5.00;2.97;;;20.30;99.90;;;;;;5050556;28;20527;-85
2023/08/25 00:22:00;;;;;;;3.20;2.60;;;20.20;99.90;;;;;;5047279;28;20437;-83
2023/08/25 00:24:27;;;;;;;5.50;2.30;;;20.20;99.90;;;;;;5044518;28;21002;-82
2023/08/25 00:26:55;;;;;;;5.00;2.50;;;20.10;99.90;;;;;;5042808;28;20448;-86
2023/08/25 00:29:22;;;;;;;4.37;2.57;;;20.10;99.90;;;;;;5043296;28;20551;-83
2023/08/25 00:31:49;;;;;;;3.50;2.40;;;20.10;99.90;;;;;;5043454;28;20460;-81
2023/08/25 00:34:16;;;;;;;2.97;2.30;;;20.10;99.90;;;;;;5043507;28;20507;-82
2023/08/25 00:36:43;;;;;;;3.40;2.13;;;20.10;99.90;;;;;;5043753;28;20455;-82
2023/08/25 00:39:09;;;;;;;4.50;2.03;;;20.10;99.90;;;;;;5044168;28;20571;-82
2023/08/25 00:41:36;;;;;;;3.47;2.20;;;20.10;99.90;;;;;;5042613;28;20793;-82
2023/08/25 00:44:05;;;;;;;4.17;2.00;;;20.20;99.90;;;;;;5043098;28;20468;-81
2023/08/25 00:46:32;;;;;;;3.50;2.23;;;20.10;99.90;;;;;;5046042;28;20588;-83
2023/08/25 00:48:59;;;;;;;2.90;2.30;;;20.10;99.90;;;;;;5044707;28;20524;-83
2023/08/25 00:51:27;;;;;;;4.43;2.37;;;20.10;99.90;;;;;;5044150;28;20456;-83
2023/08/25 00:53:54;;;;;;;3.83;2.37;;;20.10;99.90;;;;;;5045588;28;20468;-83
2023/08/25 00:56:21;;;;;;;4.73;2.87;;;20.10;99.90;;;;;;5048341;28;21001;-84
2023/08/25 00:58:49;;;;;;;3.30;2.10;;;20.10;99.90;;;;;;5041217;28;20588;-82
2023/08/25 01:01:18;;;;;;;3.10;2.23;;;20.10;99.90;;;;;;5039070;28;20523;-85
2023/08/25 01:03:48;;;;;;;5.10;2.77;;;20.10;99.90;;;;;;5046538;28;20468;-82
2023/08/25 01:06:15;;;;;;;3.67;2.63;;;20.00;99.90;;;;;;5045938;28;20453;-82
2023/08/25 01:08:43;;;;;;;6.17;2.40;;;20.10;99.90;;;;;;5047351;28;20465;-83
2023/08/25 01:11:31;;;;;;;5.27;2.43;;;20.00;99.90;;;;;;5048758;28;20516;-81
2023/08/25 01:14:06;;;;;;;3.63;2.23;;;20.00;99.90;;;;;;5032648;28;20452;-82
2023/08/25 01:16:38;;;;;;;3.13;2.30;;;20.00;99.90;;;;;;5047283;28;20597;-81
2023/08/25 01:19:11;;;;;;;5.20;2.40;;;20.00;99.90;;;;;;5046638;28;20508;-82
2023/08/25 01:21:42;;;;;;;4.37;2.00;;;20.00;99.90;;;;;;5043982;28;20456;-80
2023/08/25 01:24:16;;;;;;;4.70;2.37;;;20.00;99.90;;;;;;5040324;28;20464;-83
2023/08/25 01:26:45;;;;;;;3.40;2.20;;;20.00;99.90;;;;;;5035798;28;20491;-83
2023/08/25 01:29:12;;;;;;;4.50;2.60;;;20.00;99.90;;;;;;5043148;28;20464;-82
2023/08/25 01:31:39;;;;;;;5.70;2.67;;;20.00;99.90;;;;;;5025774;28;20453;-84
2023/08/25 01:34:06;;;;;;;4.00;2.40;;;20.00;99.90;;;;;;5041558;28;20534;-80
2023/08/25 01:36:38;;;;;;;4.40;2.40;;;20.00;99.90;;;;;;5042011;28;20460;-83
2023/08/25 01:39:10;;;;;;;3.20;2.17;;;19.90;99.90;;;;;;5042335;28;20484;-82
2023/08/25 01:41:45;;;;;;;3.50;2.50;;;19.90;99.90;;;;;;5035947;28;20469;-81
2023/08/25 01:44:15;;;;;;;4.50;2.90;;;19.90;99.90;;;;;;5045868;28;20472;-84
2023/08/25 01:46:44;;;;;;;3.57;2.20;;;19.90;99.90;;;;;;5043098;28;21011;-82
2023/08/25 01:49:13;;;;;;;3.87;2.40;;;19.90;99.90;;;;;;5044782;28;20473;-82
2023/08/25 01:51:41;;;;;;;3.70;2.40;;;19.90;99.90;;;;;;5043537;28;20461;-81
2023/08/25 01:54:07;;;;;;;3.40;2.37;;;19.80;99.90;;;;;;5044213;28;20848;-82
2023/08/25 01:56:34;;;;;;;4.37;3.20;;;19.80;99.90;;;;;;5034196;28;20460;-81
2023/08/25 01:59:02;;;;;;;3.17;2.50;;;19.80;99.90;;;;;;5036364;28;20495;-82
2023/08/25 02:01:30;;;;;;;6.43;2.70;;;19.80;99.90;;;;;;5044387;28;20972;-81
2023/08/25 02:03:57;;;;;;;3.60;2.60;;;19.80;99.90;;;;;;5042362;28;20512;-81
2023/08/25 02:06:24;;;;;;;4.07;2.40;;;19.80;99.90;;;;;;5043227;28;20886;-81
2023/08/25 02:08:51;;;;;;;3.60;2.47;;;19.80;99.90;;;;;;5042884;28;20539;-83
2023/08/25 02:11:18;;;;;;;3.27;2.20;;;19.80;99.90;;;;;;5042918;28;20456;-80
2023/08/25 02:13:44;;;;;;;5.47;3.17;;;19.70;99.90;;;;;;5041649;28;20563;-82
2023/08/25 02:16:13;;;;;;;3.60;2.20;;;19.70;99.90;;;;;;5044211;28;20536;-83
2023/08/25 02:18:39;;;;;;;3.60;2.70;;;19.70;99.90;;;;;;5043652;28;20864;-83
2023/08/25 02:21:07;;;;;;;3.57;2.50;;;19.60;99.90;;;;;;5042246;28;20544;-83
2023/08/25 02:23:34;;;;;;;4.37;2.60;;;19.70;99.90;;;;;;5035533;28;21020;-81
2023/08/25 02:26:01;;;;;;;4.33;2.60;;;19.70;99.90;;;;;;5041704;28;20480;-81
2023/08/25 02:28:28;;;;;;;3.97;2.77;;;19.70;99.90;;;;;;5043258;28;20445;-82
2023/08/25 02:30:55;;;;;;;5.20;2.63;;;19.60;99.90;;;;;;5046126;28;20452;-80
2023/08/25 02:33:23;;;;;;;3.17;2.40;;;19.60;99.90;;;;;;5045191;28;20567;-83
2023/08/25 02:35:50;;;;;;;4.30;3.30;;;19.60;99.90;;;;;;5039045;28;20545;-85
2023/08/25 02:38:17;;;;;;;5.70;3.20;;;19.60;99.90;;;;;;5043610;28;20463;-83
2023/08/25 02:40:43;;;;;;;7.70;3.40;;;19.60;99.90;;;;;;5043790;28;20528;-82
2023/08/25 02:43:10;;;;;;;3.87;2.73;;;19.60;99.90;;;;;;5044420;28;20892;-83
2023/08/25 02:45:37;;;;;;;5.27;4.30;;;19.60;99.90;;;;;;5043827;28;21045;-83
2023/08/25 02:48:05;;;;;;;5.00;3.00;;;19.60;99.90;;;;;;5044805;28;20455;-81
2023/08/25 02:50:34;;;;;;;4.80;3.07;;;19.60;99.90;;;;;;5043834;28;20502;-81
2023/08/25 02:53:01;;;;;;;5.07;3.07;;;19.60;99.90;;;;;;5044542;28;20556;-81
2023/08/25 02:55:28;;;;;;;6.53;3.10;;;19.60;99.90;;;;;;5046593;28;20520;-84
2023/08/25 02:57:55;;;;;;;3.53;2.70;;;19.60;99.90;;;;;;5047412;28;20512;-84
2023/08/25 03:00:24;;;;;;;3.73;2.53;;;19.60;99.90;;;;;;5046344;28;20516;-85
2023/08/25 03:02:51;;;;;;;3.67;2.67;;;19.60;99.90;;;;;;5044911;28;20493;-80
2023/08/25 03:05:18;;;;;;;5.23;3.10;;;19.50;99.90;;;;;;5045953;28;20531;-80
2023/08/25 03:07:46;;;;;;;6.93;3.83;;;19.50;99.90;;;;;;5042903;28;20487;-82
2023/08/25 03:10:13;;;;;;;4.83;3.03;;;19.50;99.90;;;;;;5037398;28;20647;-81
2023/08/25 03:12:40;;;;;;;3.50;3.07;;;19.50;99.90;;;;;;5037779;28;20520;-81
2023/08/25 03:15:08;;;;;;;3.93;2.83;;;19.50;99.90;;;;;;5037341;28;20459;-80
2023/08/25 03:17:35;;;;;;;6.63;3.40;;;19.50;99.90;;;;;;5037080;28;20527;-81
2023/08/25 03:20:02;;;;;;;6.80;3.40;;;19.50;99.90;;;;;;5036889;28;20480;-81
2023/08/25 03:22:29;;;;;;;5.70;3.00;;;19.40;99.90;;;;;;5036790;28;20464;-79
2023/08/25 03:24:57;;;;;;;3.30;2.83;;;19.50;99.90;;;;;;5041137;28;20808;-84
2023/08/25 03:27:24;;;;;;;4.83;3.37;;;19.40;99.90;;;;;;5044310;28;20464;-82
2023/08/25 03:29:51;;;;;;;5.23;3.60;;;19.40;99.90;;;;;;5036963;28;20468;-81
2023/08/25 03:32:18;;;;;;;4.37;3.13;;;19.40;99.90;;;;;;5034777;28;20480;-79
2023/08/25 03:34:44;;;;;;;4.63;3.43;;;19.40;99.90;;;;;;5034567;28;20911;-82
2023/08/25 03:37:12;;;;;;;5.77;3.70;;;19.40;99.90;;;;;;5031484;28;20459;-80
2023/08/25 03:39:39;;;;;;;5.13;3.37;;;19.40;99.90;;;;;;5034832;28;20480;-81
2023/08/25 03:42:07;;;;;;;4.30;2.80;;;19.30;99.90;;;;;;5033282;28;20448;-80
2023/08/25 03:44:34;;;;;;;4.77;3.43;;;19.30;99.90;;;;;;5033298;28;20483;-81
2023/08/25 03:47:01;;;;;;;4.37;3.30;;;19.30;99.90;;;;;;5032607;28;20444;-82
2023/08/25 03:49:30;;;;;;;4.13;3.50;;;19.30;99.90;;;;;;5032861;28;20459;-81
2023/08/25 03:51:58;;;;;;;4.73;3.70;;;19.30;99.90;;;;;;5035147;28;20539;-81
2023/08/25 03:54:25;;;;;;;4.93;3.90;;;19.30;99.90;;;;;;5033063;28;20828;-81
2023/08/25 03:56:52;;;;;;;4.03;3.40;;;19.30;99.90;;;;;;5027207;28;20452;-81
2023/08/25 03:59:20;;;;;;;4.73;3.43;;;19.30;99.90;;;;;;5022220;28;20572;-80
2023/08/25 04:01:47;;;;;;;3.53;3.00;;;19.20;99.90;;;;;;5024851;28;20450;-81
2023/08/25 04:04:14;;;;;;;3.67;3.33;;;19.20;99.90;;;;;;5032089;28;20931;-81
2023/08/25 04:06:41;;;;;;;6.53;3.53;;;19.20;99.90;;;;;;5033135;28;20452;-81
2023/08/25 04:09:08;;;;;;;7.37;4.20;;;19.20;99.90;;;;;;5032807;28;20503;-82
2023/08/25 04:11:36;;;;;;;6.37;3.23;;;19.10;99.90;;;;;;5021097;28;20463;-81
2023/08/25 04:14:03;;;;;;;5.13;3.10;;;19.20;99.90;;;;;;5019209;28;20478;-81
2023/08/25 04:16:39;;;;;;;3.93;3.50;;;19.20;99.90;;;;;;5016237;28;20456;-84
2023/08/25 04:19:06;;;;;;;5.23;3.97;;;19.10;99.90;;;;;;5019005;28;20890;-82
2023/08/25 04:21:33;;;;;;;5.13;4.63;;;19.10;99.90;;;;;;5016196;28;20493;-83
2023/08/25 04:24:00;;;;;;;6.10;4.90;;;19.20;99.90;;;;;;5015735;28;20464;-82
2023/08/25 04:26:27;;;;;;;5.17;4.23;;;19.10;99.90;;;;;;5015893;28;20453;-82
2023/08/25 04:28:54;;;;;;;8.40;4.60;;;19.20;99.90;;;;;;5016873;28;20456;-81
2023/08/25 04:31:20;;;;;;;5.30;4.00;;;19.10;99.90;;;;;;5016568;28;20476;-83
2023/08/25 04:33:49;;;;;;;6.30;3.97;;;19.10;99.90;;;;;;5016538;28;20501;-82
2023/08/25 04:36:16;;;;;;;5.30;3.67;;;19.10;99.90;;;;;;5016456;28;20441;-83
2023/08/25 04:38:43;;;;;;;7.10;4.83;;;19.10;99.90;;;;;;5016508;28;20477;-81
2023/08/25 04:41:09;;;;;;;5.90;5.17;;;19.10;99.90;;;;;;5016947;28;20536;-83
2023/08/25 04:43:36;;;;;;;6.03;5.00;;;19.10;99.90;;;;;;5017120;28;20527;-83
2023/08/25 04:46:03;;;;;;;7.30;5.40;;;19.10;99.90;;;;;;5019319;28;20454;-84
2023/08/25 04:48:30;;;;;;;5.30;4.50;;;19.10;99.90;;;;;;5018832;28;20517;-82
2023/08/25 04:50:58;;;;;;;5.63;4.67;;;19.10;99.90;;;;;;5034265;28;20535;-83
2023/08/25 04:53:25;;;;;;;5.70;4.50;;;19.20;99.90;;;;;;5037029;28;20479;-83
2023/08/25 04:55:52;;;;;;;7.07;5.10;;;19.10;99.90;;;;;;5042110;28;20550;-85
2023/08/25 04:58:18;;;;;;;6.03;4.63;;;19.10;99.90;;;;;;5045076;28;20456;-82
2023/08/25 05:00:48;;;;;;;6.00;5.13;;;19.10;99.90;;;;;;5046364;28;20483;-83
2023/08/25 05:05:51;;;;;;;8.87;5.80;;;19.10;99.90;;;;;;5050551;23;20499;-78
2023/08/25 05:08:19;;;;;;;5.80;4.67;;;19.10;99.90;;;;;;5033657;28;20460;-78
2023/08/25 05:10:46;;;;;;;8.37;5.27;;;19.10;99.90;;;;;;5028856;28;20449;-81
2023/08/25 05:13:13;;;;;;;6.03;5.20;;;19.20;99.90;;;;;;5040928;28;20920;-79
2023/08/25 05:15:39;;;;;;;8.00;6.10;;;19.20;99.90;;;;;;5019688;28;20492;-79
2023/08/25 05:18:06;;;;;;;8.47;6.93;;;19.20;99.90;;;;;;5017612;28;20460;-82
2023/08/25 05:20:33;;;;;;;6.87;6.17;;;19.20;99.90;;;;;;5016498;28;20568;-80
2023/08/25 05:23:00;;;;;;;11.17;6.50;;;19.30;99.90;;;;;;5017614;28;20442;-80
2023/08/25 05:25:28;;;;;;;6.90;6.20;;;19.30;99.90;;;;;;5019778;28;20483;-81
2023/08/25 05:27:55;;;;;;;11.43;7.27;;;19.30;99.90;;;;;;5017714;28;20492;-83
2023/08/25 05:30:22;;;;;;;7.67;6.30;;;19.40;99.90;;;;;;5027957;28;20471;-79
2023/08/25 05:32:48;;;;;;;7.93;6.60;;;19.40;99.90;;;;;;5036606;28;20451;-80
2023/08/25 05:35:15;;;;;;;12.30;7.43;;;19.40;99.90;;;;;;5025178;28;20487;-83
2023/08/25 05:37:43;;;;;;;8.07;7.23;;;19.50;99.90;;;;;;5013197;28;20556;-81
2023/08/25 05:40:12;;;;;;;7.97;6.90;;;19.50;99.90;;;;;;5015171;28;20489;-82
2023/08/25 05:42:40;;;;;;;8.60;7.10;;;19.50;99.90;;;;;;5012300;28;20453;-82
2023/08/25 05:45:08;;;;;;;8.70;7.63;;;19.60;99.90;;;;;;5021128;28;20472;-78
2023/08/25 05:47:35;;;;;;;8.00;7.30;;;19.60;99.90;;;;;;5016641;28;20484;-79
2023/08/25 05:50:02;;;;;;;8.93;7.10;;;19.60;99.90;;;;;;5016620;28;20512;-80
2023/08/25 05:52:29;;;;;;;7.53;6.80;;;19.70;99.90;;;;;;5015387;28;20445;-81
2023/08/25 05:54:55;;;;;;;11.03;7.93;;;19.80;99.90;;;;;;5018570;28;21230;-79
2023/08/25 05:57:22;;;;;;;9.60;7.10;;;19.80;99.90;;;;;;5017236;28;20977;-80
2023/08/25 05:59:51;;;;;;;10.03;7.23;;;19.80;99.90;;;;;;5014333;28;20492;-78
2023/08/25 06:02:18;;;;;;;7.57;6.73;;;19.80;99.90;;;;;;5014366;28;21034;-79
2023/08/25 06:04:44;;;;;;;8.17;7.37;;;19.90;99.90;;;;;;5016852;28;20575;-81
2023/08/25 06:07:11;;;;;;;8.03;7.33;;;19.90;99.90;;;;;;5009281;28;20466;-80
2023/08/25 06:09:38;;;;;;;9.83;8.00;;;19.90;99.90;;;;;;5011043;28;20457;-80
2023/08/25 06:12:06;;;;;;;10.50;8.83;;;20.00;99.90;;;;;;5017709;28;20465;-79
2023/08/25 06:14:35;;;;;;;10.67;7.50;;;20.00;99.90;;;;;;5014346;28;20484;-82
2023/08/25 06:17:03;;;;;;;8.60;7.70;;;20.10;99.90;;;;;;5014729;28;20514;-80
2023/08/25 06:19:33;;;;;;;9.67;7.43;;;20.10;99.90;;;;;;5021913;28;20453;-78
2023/08/25 06:22:00;;;;;;;9.50;8.40;;;20.10;99.90;;;;;;5017388;28;20457;-82
2023/08/25 06:24:27;;;;;;;11.27;9.27;;;20.10;99.90;;;;;;5023386;28;20479;-80
2023/08/25 06:26:54;;;;;;;10.40;9.30;;;20.20;99.90;;;;;;5031938;28;20448;-80
2023/08/25 06:29:21;;;;;;;10.13;8.50;;;20.30;99.90;;;;;;5018617;28;20456;-79
2023/08/25 06:31:48;;;;;;;11.37;8.63;;;20.40;99.90;;;;;;5014023;28;20454;-82
2023/08/25 06:34:17;;;;;;;12.10;8.90;;;20.40;99.90;;;;;;5018034;28;20639;-80
2023/08/25 06:36:43;;;;;;;10.67;8.60;;;20.40;99.90;;;;;;5024298;28;20461;-82
2023/08/25 06:39:11;;;;;;;11.57;8.70;;;20.40;99.90;;;;;;5024454;28;20572;-80
2023/08/25 06:41:37;;;;;;;10.43;6.97;;;20.40;99.90;;;;;;5016018;28;20568;-80
2023/08/25 06:44:05;;;;;;;11.43;7.27;;;20.50;99.90;;;;;;5018976;28;20469;-83
2023/08/25 06:46:33;;;;;;;8.13;5.73;;;20.60;99.90;;;;;;5020532;28;20508;-83
2023/08/25 06:49:00;;;;;;;8.03;6.73;;;20.70;99.90;;;;;;5016488;28;20537;-82
2023/08/25 06:51:28;;;;;;;9.57;6.23;;;20.70;99.90;;;;;;5017021;28;20457;-84
2023/08/25 06:53:56;;;;;;;7.43;4.73;;;20.80;99.90;;;;;;5017343;28;20560;-84
2023/08/25 06:56:23;;;;;;;8.33;5.50;;;20.80;99.90;;;;;;5015730;28;20508;-83
2023/08/25 06:58:50;;;;;;;6.30;4.77;;;20.90;99.90;;;;;;5025894;28;20450;-83
2023/08/25 07:01:18;;;;;;;12.63;5.47;;;21.00;99.90;;;;;;5039823;28;20584;-82
2023/08/25 07:03:45;;;;;;;8.73;4.97;;;21.10;99.90;;;;;;5021761;28;20462;-81
2023/08/25 07:06:11;;;;;;;7.20;4.57;;;21.20;99.90;;;;;;5019033;28;20493;-83
2023/08/25 07:08:41;;;;;;;10.13;4.90;;;21.20;99.90;;;;;;5020563;28;21027;-82
2023/08/25 07:11:08;;;;;;;6.80;3.90;;;21.30;99.90;;;;;;5028788;28;20476;-83
2023/08/25 07:13:35;;;;;;;6.50;4.73;;;21.40;99.90;;;;;;5017475;28;20457;-81
2023/08/25 07:16:03;;;;;;;7.00;4.07;;;21.40;99.90;;;;;;5011797;28;20464;-81
2023/08/25 07:18:30;;;;;;;4.90;3.20;;;21.50;99.90;;;;;;5013057;28;20454;-81
2023/08/25 07:20:56;;;;;;;5.37;3.07;;;21.50;99.90;;;;;;5013030;28;20492;-82
2023/08/25 07:23:23;;;;;;;6.20;3.60;;;21.50;99.90;;;;;;5015949;28;20460;-80
2023/08/25 07:25:53;;;;;;;5.37;3.50;;;21.50;99.90;;;;;;5014588;28;20532;-82
2023/08/25 07:28:20;;;;;;;9.47;3.77;;;21.60;99.90;;;;;;5013876;28;20912;-81
2023/08/25 07:30:47;;;;;;;6.17;4.00;;;21.60;99.90;;;;;;5016518;28;20460;-83
2023/08/25 07:33:14;;;;;;;8.00;4.03;;;21.70;99.90;;;;;;5013114;28;21000;-81
2023/08/25 07:35:41;;;;;;;6.40;3.90;;;21.80;99.90;;;;;;5011912;28;20511;-82
2023/08/25 07:38:13;;;;;;;5.80;3.67;;;21.80;99.90;;;;;;5012332;28;20449;-83
2023/08/25 07:40:40;;;;;;;4.50;3.43;;;21.80;99.90;;;;;;5005298;28;20482;-83
2023/08/25 07:43:08;;;;;;;5.50;4.60;;;21.70;99.90;;;;;;5010019;28;20467;-82
2023/08/25 07:45:37;;;;;;;8.90;4.30;;;21.70;99.90;;;;;;5013220;28;20473;-80
2023/08/25 07:48:14;;;;;;;6.57;3.50;;;21.70;99.90;;;;;;5013579;28;20448;-80
2023/08/25 07:50:43;;;;;;;6.37;4.20;;;21.50;99.90;;;;;;5014127;28;20449;-79
2023/08/25 07:53:10;;;;;;;5.30;3.40;;;21.50;99.90;;;;;;5014593;28;20457;-79
2023/08/25 07:55:39;;;;;;;7.23;3.43;;;21.40;99.90;;;;;;5005045;28;20826;-80
2023/08/25 07:58:07;;;;;;;7.13;3.93;;;21.40;99.90;;;;;;5013025;28;20450;-79
2023/08/25 08:00:34;;;;;;;9.30;5.47;;;21.20;99.90;;;;;;5003616;28;20490;-82
2023/08/25 08:03:03;;;;;;;5.23;4.53;;;21.10;99.90;;;;;;5014818;28;20528;-82
2023/08/25 08:05:30;;;;;;;7.07;4.37;;;20.90;99.90;;;;;;5012833;28;20509;-79
2023/08/25 08:07:58;;;;;;;5.87;4.47;;;20.80;99.90;;;;;;5013440;28;20450;-81
2023/08/25 08:10:25;;;;;;;7.70;4.77;;;20.70;99.90;;;;;;5021578;28;21023;-81
2023/08/25 08:12:53;;;;;;;6.80;5.10;;;20.60;99.90;;;;;;5006263;28;20474;-82
2023/08/25 08:15:21;;;;;;;6.40;4.87;;;20.60;99.90;;;;;;5010263;28;20569;-81
2023/08/25 08:17:48;;;;;;;9.37;6.00;;;20.40;99.90;;;;;;5011144;28;21017;-81
2023/08/25 08:20:15;;;;;;;7.37;5.77;;;20.40;99.90;;;;;;5005617;28;20496;-80
2023/08/25 08:22:44;;;;;;;6.40;5.70;;;20.30;99.90;;;;;;5008318;28;20457;-78
2023/08/25 08:25:14;;;;;;;8.00;6.07;;;20.30;99.90;;;;;;5008803;28;20548;-81
2023/08/25 08:27:42;;;;;;;7.20;5.20;;;20.20;99.90;;;;;;5006705;28;20465;-81
2023/08/25 08:30:09;;;;;;;6.63;5.30;;;20.20;99.90;;;;;;5003625;28;20553;-82
2023/08/25 08:32:38;;;;;;;7.90;6.60;;;20.10;99.90;;;;;;5001684;28;20469;-81
2023/08/25 08:35:08;;;;;;;7.23;6.07;;;20.10;99.90;;;;;;5007983;28;20478;-80
2023/08/25 08:37:34;;;;;;;8.00;5.80;;;20.10;99.90;;;;;;5007892;28;20457;-81
2023/08/25 08:40:01;;;;;;;9.00;6.80;;;20.10;99.90;;;;;;5012438;28;20449;-80
2023/08/25 08:42:30;;;;;;;8.10;7.30;;;19.90;99.90;;;;;;5007211;28;20537;-81
2023/08/25 08:45:03;;;;;;;5.60;5.00;;;19.90;99.90;;;;;;5013369;28;20588;-80
2023/08/25 08:47:30;;;;;;;8.37;6.33;;;19.90;99.90;;;;;;5014150;28;20457;-80
2023/08/25 08:49:59;;;;;;;9.83;6.07;;;19.90;99.90;;;;;;5012537;28;20458;-81
2023/08/25 08:52:28;;;;;;;7.27;6.50;;;19.80;99.90;;;;;;5012543;28;20445;-80
2023/08/25 08:54:57;;;;;;;8.23;6.80;;;19.90;99.90;;;;;;5016298;28;20556;-78
2023/08/25 08:57:24;;;;;;;8.57;6.33;;;19.90;99.90;;;;;;5003897;28;20837;-81
2023/08/25 08:59:51;;;;;;;9.80;6.30;;;19.80;99.90;;;;;;5013285;28;20841;-81
2023/08/25 09:02:20;;;;;;;7.60;6.03;;;19.80;99.90;;;;;;5015887;28;20486;-81
2023/08/25 09:04:50;;;;;;;8.77;7.83;;;19.90;99.90;;;;;;5007069;28;20496;-82
2023/08/25 09:07:20;;;;;;;8.57;6.07;;;19.90;99.90;;;;;;5015498;28;20544;-80
2023/08/25 09:09:47;;;;;;;10.70;8.33;;;19.90;99.90;;;;;;5016832;28;20998;-81
2023/08/25 09:12:15;;;;;;;7.47;5.70;;;19.90;99.90;;;;;;5014584;28;20533;-81
2023/08/25 09:14:42;;;;;;;6.20;4.70;;;19.90;99.90;;;;;;5012431;28;20473;-80
2023/08/25 09:17:14;;;;;;;7.63;6.57;;;19.90;99.90;;;;;;5009984;28;20461;-80
2023/08/25 09:19:41;;;;;;;8.33;5.80;;;20.00;99.90;;;;;;5008908;28;20550;-81
2023/08/25 09:22:11;;;;;;;6.30;5.27;;;20.00;99.90;;;;;;5008914;28;20481;-79
2023/08/25 09:24:39;;;;;;;6.17;5.03;;;20.10;99.90;;;;;;5015300;28;20478;-82
2023/08/25 09:27:06;;;;;;;7.03;6.37;;;20.20;99.90;;;;;;5009186;28;20492;-81
2023/08/25 09:29:41;;;;;;;5.00;4.33;;;20.20;99.90;;;;;;5020554;28;20908;-81
2023/08/25 09:32:13;;;;;;;5.87;4.37;;;20.20;99.90;;;;;;5027665;28;20433;-81
2023/08/25 09:34:40;;;;;;;5.73;5.17;;;20.20;99.90;;;;;;5024481;28;20634;-81
2023/08/25 09:37:09;;;;;;;6.53;5.30;;;20.20;99.90;;;;;;5021114;28;20532;-81
2023/08/25 09:39:43;;;;;;;6.90;4.90;;;20.20;99.90;;;;;;5019910;28;20459;-81
2023/08/25 09:42:10;;;;;;;7.67;5.10;;;20.20;99.90;;;;;;5015328;28;20496;-81
2023/08/25 09:44:38;;;;;;;8.57;5.90;;;20.20;99.90;;;;;;5015720;28;20469;-81
2023/08/25 09:47:06;;;;;;;5.60;5.10;;;20.20;99.90;;;;;;5026463;28;20456;-84
2023/08/25 09:49:39;;;;;;;7.47;5.70;;;20.20;99.90;;;;;;5018299;28;20453;-81
2023/08/25 09:52:07;;;;;;;6.73;5.83;;;20.20;99.90;;;;;;5018232;28;20449;-81
2023/08/25 09:54:34;;;;;;;9.67;5.93;;;20.20;99.90;;;;;;5017917;28;20481;-81
2023/08/25 09:57:03;;;;;;;8.60;5.47;;;20.30;99.90;;;;;;5015655;28;20500;-81
2023/08/25 09:59:30;;;;;;;6.00;5.37;;;20.30;99.90;;;;;;5016601;28;20492;-79
2023/08/25 10:01:58;;;;;;;6.63;6.03;;;20.40;99.90;;;;;;5017895;28;20486;-81
2023/08/25 10:04:25;;;;;;;7.10;5.87;;;20.40;99.90;;;;;;5017957;28;20485;-81
2023/08/25 10:06:53;;;;;;;8.30;5.60;;;20.30;99.90;;;;;;5017421;28;20446;-81
2023/08/25 10:09:20;;;;;;;9.53;6.90;;;20.40;99.90;;;;;;5015891;28;20457;-79
2023/08/25 10:11:49;;;;;;;9.70;7.47;;;20.30;99.90;;;;;;5034169;28;20484;-79
2023/08/25 10:14:23;;;;;;;9.20;6.33;;;20.20;99.90;;;;;;5013233;28;20487;-80
2023/08/25 10:16:51;;;;;;;8.53;6.10;;;20.30;99.90;;;;;;5011611;28;20448;-80
2023/08/25 10:19:23;;;;;;;8.13;6.27;;;20.30;99.90;;;;;;5014258;28;20442;-80
2023/08/25 10:21:51;;;;;;;7.83;6.83;;;20.20;99.90;;;;;;5018425;28;21047;-79
2023/08/25 10:24:19;;;;;;;9.13;6.50;;;20.20;99.90;;;;;;5014019;28;20497;-77
2023/08/25 10:26:49;;;;;;;9.53;7.47;;;20.10;99.90;;;;;;5018464;28;20470;-79
2023/08/25 10:29:20;;;;;;;8.57;7.67;;;20.10;99.90;;;;;;5015310;28;20468;-78
2023/08/25 10:31:47;;;;;;;10.07;7.93;;;20.00;99.90;;;;;;5015768;28;20442;-78
2023/08/25 10:34:33;;;;;;;11.43;8.37;;;20.00;99.90;;;;;;5015696;28;20477;-79
2023/08/25 10:37:07;;;;;;;9.37;6.73;;;20.00;99.90;;;;;;5014029;28;20969;-78
2023/08/25 10:39:50;;;;;;;8.53;6.67;;;20.00;99.90;;;;;;5014585;28;20449;-77
2023/08/25 10:42:24;;;;;;;7.20;5.23;;;19.90;99.90;;;;;;5013594;28;20485;-80
2023/08/25 10:44:55;;;;;;;8.80;5.70;;;19.90;99.90;;;;;;5011836;28;20495;-78
2023/08/25 10:47:23;;;;;;;6.47;5.13;;;19.80;99.90;;;;;;5011449;28;20923;-78
2023/08/25 10:49:54;;;;;;;5.57;4.77;;;19.80;99.90;;;;;;5011296;28;20457;-78
2023/08/25 10:52:22;;;;;;;5.63;5.03;;;19.70;99.90;;;;;;5012751;28;20453;-79
2023/08/25 10:54:51;;;;;;;7.20;5.40;;;19.80;99.90;;;;;;5008682;28;20516;-78
2023/08/25 10:57:20;;;;;;;7.40;5.17;;;19.80;99.90;;;;;;5013188;28;20476;-76
2023/08/25 10:59:51;;;;;;;8.10;5.13;;;19.80;99.90;;;;;;5012731;28;20489;-77
2023/08/25 11:02:37;;;;;;;7.37;5.07;;;19.70;99.90;;;;;;5012155;28;21305;-77
2023/08/25 11:07:44;;;;;;;6.30;3.57;;;19.70;99.90;;;;;;5008110;28;20473;-79
2023/08/25 11:10:14;;;;;;;5.53;3.87;;;19.70;99.90;;;;;;5012769;28;20485;-79
2023/08/25 11:12:42;;;;;;;5.57;4.33;;;19.60;99.90;;;;;;5009946;28;20800;-78
2023/08/25 11:15:09;;;;;;;8.93;4.40;;;19.40;99.90;;;;;;5012214;28;20491;-79
2023/08/25 11:17:37;;;;;;;5.53;4.13;;;19.30;99.90;;;;;;5012103;28;20478;-81
2023/08/25 11:20:05;;;;;;;5.03;3.93;;;19.40;99.90;;;;;;5010047;28;20462;-83
2023/08/25 11:22:32;;;;;;;4.63;4.20;;;19.40;99.90;;;;;;5014713;28;20585;-79
2023/08/25 11:24:59;;;;;;;6.10;4.17;;;19.40;99.90;;;;;;4998550;28;20501;-81
2023/08/25 11:27:28;;;;;;;4.40;4.00;;;19.40;99.90;;;;;;4995167;28;20502;-80
2023/08/25 11:30:09;;;;;;;5.30;3.40;;;19.40;99.90;;;;;;5002421;28;20457;-79
2023/08/25 11:32:37;;;;;;;5.33;3.67;;;19.50;99.90;;;;;;5015698;28;20536;-82
2023/08/25 11:35:04;;;;;;;4.50;3.47;;;19.50;99.90;;;;;;5015887;28;20456;-81
2023/08/25 11:37:31;;;;;;;5.37;3.07;;;19.50;99.90;;;;;;5015007;28;20556;-81
2023/08/25 11:39:58;;;;;;;6.10;3.77;;;19.40;99.90;;;;;;5011447;28;20473;-80
2023/08/25 11:42:25;;;;;;;7.50;4.30;;;19.40;99.90;;;;;;5015169;28;20573;-80
2023/08/25 11:44:53;;;;;;;3.37;3.07;;;19.50;99.90;;;;;;5015891;28;20464;-80
2023/08/25 11:47:21;;;;;;;6.40;3.30;;;19.50;99.90;;;;;;5013821;28;20480;-83
2023/08/25 11:49:54;;;;;;;3.60;3.07;;;19.60;99.90;;;;;;5011395;28;20462;-82
2023/08/25 11:52:21;;;;;;;2.80;2.50;;;19.60;99.90;;;;;;5009711;28;20450;-81
2023/08/25 11:54:48;;;;;;;3.37;3.07;;;19.70;99.90;;;;;;5011018;28;20449;-80
2023/08/25 11:57:15;;;;;;;4.40;2.80;;;19.70;99.90;;;;;;5007351;28;21015;-80
2023/08/25 11:59:42;;;;;;;2.93;2.50;;;19.80;99.90;;;;;;5004326;28;20453;-82
2023/08/25 12:02:09;;;;;;;3.90;3.30;;;19.90;99.90;;;;;;5009610;28;21516;-81
2023/08/25 12:04:36;;;;;;;4.20;2.90;;;19.90;99.90;;;;;;5008095;28;20463;-79
2023/08/25 12:07:04;;;;;;;4.83;3.13;;;19.90;99.90;;;;;;5013320;28;20501;-80
2023/08/25 12:09:31;;;;;;;4.47;3.00;;;20.00;99.90;;;;;;5013051;28;20988;-81
2023/08/25 12:11:58;;;;;;;3.80;3.17;;;20.00;99.90;;;;;;5008651;28;21021;-84
2023/08/25 12:14:27;;;;;;;3.33;2.67;;;20.30;99.90;;;;;;4995323;28;20446;-81
2023/08/25 12:16:54;;;;;;;3.77;2.40;;;20.40;99.90;;;;;;5014879;28;20501;-80
2023/08/25 12:19:24;;;;;;;3.70;2.70;;;20.40;99.90;;;;;;5015512;28;20461;-80
2023/08/25 12:21:54;;;;;;;5.57;2.67;;;20.40;99.90;;;;;;5004283;28;20911;-81
2023/08/25 12:24:22;;;;;;;5.20;2.50;;;20.20;99.90;;;;;;4996265;28;20454;-79
2023/08/25 12:26:49;;;;;;;6.27;3.20;;;20.20;99.90;;;;;;5010550;28;21012;-80
2023/08/25 12:29:16;;;;;;;5.53;2.90;;;20.10;99.90;;;;;;5015376;28;20458;-81
2023/08/25 12:31:43;;;;;;;3.83;3.10;;;20.20;99.90;;;;;;5007865;28;20466;-81
2023/08/25 12:34:11;;;;;;;3.23;2.80;;;20.30;99.90;;;;;;5001832;28;20464;-81
2023/08/25 12:36:38;;;;;;;4.30;2.90;;;20.40;99.90;;;;;;5014725;28;20473;-82
2023/08/25 12:39:05;;;;;;;4.37;3.70;;;20.50;99.90;;;;;;5013989;28;20545;-81
2023/08/25 12:41:33;;;;;;;7.57;3.60;;;20.60;99.90;;;;;;5015231;28;20553;-81
2023/08/25 12:44:01;;;;;;;4.80;3.90;;;20.90;99.90;;;;;;5014818;28;20999;-82
2023/08/25 12:46:27;;;;;;;5.63;3.70;;;21.40;99.90;;;;;;5013943;28;20474;-80
2023/08/25 12:48:54;;;;;;;6.80;3.47;;;22.00;99.90;;;;;;5014979;28;20454;-80
2023/08/25 12:51:21;;;;;;;3.30;2.47;;;22.10;99.90;;;;;;5010310;28;20458;-81
2023/08/25 12:53:48;;;;;;;12.90;3.50;;;22.00;99.90;;;;;;5015078;28;20453;-80
2023/08/25 12:56:15;;;;;;;3.20;2.90;;;22.00;99.90;;;;;;5015575;28;20469;-81